Amritsar, India

3:01 PM IST on August 24, 2019 (GMT +0530)
Amritsar | | Change Station

Elev 768 ft 31.63 °N, 74.87 °E | Updated 31 minutes ago

Haze
Haze
97 °F
Feels Like 110 °F
N
4
Wind Variable Wind from Variable

Today
High -- | Low -- °F
--% Chance of Precip.
Yesterday
High -- | Low -- °F
Precip. -- in
Pressure 29.62 in
Visibility 2.5 miles
Clouds Scattered Clouds 3000 ft
Heat Index 110 °F
Dew Point 75 °F
Humidity 50%
Rainfall 0.00 in
Snow Depth Not available.
6:00 AM 7:04 PM
Last Quarter, 42% visible
METAR VIAR 240900Z VRB03KT 4000 HZ SCT030 36/24 Q1003 NOSIG
Pressure 29.62 in
Visibility 2.5 miles
Clouds Scattered Clouds 3000 ft
Heat Index 110 °F
Dew Point 75 °F
Humidity 50%
Rainfall 0.00 in
Snow Depth Not available.
6:00 AM 7:04 PM
Last Quarter, 42% visible
METAR VIAR 240900Z VRB03KT 4000 HZ SCT030 36/24 Q1003 NOSIG

Get Severe Weather Alerts

Thanks for signing up!

Be on the lookout for a verification email in your inbox.

You'll start receiving the daily forecast at 6 AM.

×

10-Day Weather Forecast

No radar image for this location.
×

Almanac

Astronomy

Aug. 24, 2019 Rise Set
Actual Time
Civil Twilight
Nautical Twilight
Astronomical Twilight
Moon
Length of Visible Light
Length of Day
Tomorrow will be .
, % of the Moon is Illuminated

Today's Extremes

Country Highs Country Lows

Community

WunderPhotos

Category 6

Welcome to Category 6. This is the collective home for Weather Underground's featured writeups by Dr. Jeff Masters (right), Bob Henson (left), Chris Burt, and other regular contributors.

Nearby

Air Quality

  Air Quality AQ Index Pollutant
Not available.

Snow Depth

Station Depth Elevation

Earthquake Activity

City Distance Mag. Time & Date
Minimum magnitude displayed is 2.5.

Coastal Water Temperatures

Place Temperature

Stations

Nearby Weather Stations

Station Location Temp. Windchill Dew Point Humidity Wind Precip. Elev Updated Type